Terminal Aerodrome Forecast
Issued by NWS

Home | Current Version | Previous Version | Text Only | Print | Product List | Glossary On
Versions: 1 2 3 4 5 6 7 8 9 10 11 12 13 14 15 16 17 18 19 20
329
FTPA31 PHFO 232012 AAA
TAFHLI
TAF AMD
PHLI 232012Z 2320/2418 VRB06KT P6SM VCSH SCT025 BKN040 BKN250
     FM232200 08009KT P6SM FEW020 SCT035
     FM240600 VRB06KT P6SM SCT020 SCT035=

USA.gov is the U.S. government's official web portal to all federal, state and local government web resources and services.